Airfield :
LOGIN :

Register | Disclaimer

   EN    FR    IT 

 










Legend :    VFR   Marginal VFR   IFR   Intensive IFR   Very Intensive IFR
Visi :
Ceiling :
>= 8 km
>= 3000ft
5 to 8 km
1000 to 3000 ft
1500m to 5 km
500 to 1000 ft
800 to 1500m
200 to 500 ft
< 800m
< 200 ft
Symbols :   Thunderstorms  Fog  Heavy snow  Heavy precipitations  Wind > 20 kt
SIGMETs :     Misc.  Thunderstorms  Icing  Turbulence  Mountain Waves  Volcanic Ashes






- Airport Elevation : 37 ft
- IATA code : HLY


EGOV - RAF Valley

CURRENT METAR :
  • 070938Z 24019KT 9999 7000S FEW014 BKN045 13/11 Q1012 BECMG FEW018 SCT045 RMK WHT BECMG BLU

EXPIRED METARs :
  • 070920Z 26020KT 9999 3000S SHRA SCT014 BKN051 13/12 Q1012 BECMG 9999 NSW RMK YLO1 BECMG GRN
  • 070907Z 25019KT 8000 3000 +SHRA SCT012 BKN020 12/10 Q1012 BECMG 9999 NSW RMK YLO1 BECMG GRN
  • 070850Z 24025KT 9000 4000W +SHRA SCT012 BKN032 BKN/// 13/09 Q1013 BECMG 9999 NSW RMK GRN BECMG GRN
  • 070820Z 22027G38KT 9999 7000SE -RA SCT012 SCT034 BKN058 15/13 Q1012 TEMPO 4000 SHRA RMK GRN TEMPO GRN
  • 070750Z 21028KT 9999 SCT013 BKN061 15/13 Q1012 TEMPO 7000 SHRA RMK GRN TEMPO GRN
  • 070720Z 21031KT 9999 7000SE -RADZ SCT015 OVC054 15/13 Q1012 TEMPO 4000 SHRA SCT014 RMK WHT TEMPO GRN
  • 070650Z 21031KT 9999 SCT014 BKN058 15/13 Q1013 TEMPO 7000 SHRA RMK GRN TEMPO GRN

TAF TAF EGOV
Valid from the 07 at 09:00 until the 07 at 18:00 UTC


070725Z 0709/0718 26014KT 9999 FEW018 SCT045
TEMPO 0709/0710 6000 SHRA BKN018
PROB30
TEMPO 0709/0710 3000 +SHRA SCT012
PROB30
TEMPO 0711/0718 3000 +SHRA SCT020CB
BECMG 0712/0714 27015G25KT



MET'MAP, your aeronautical weather chart ! - Copyright ORBIFLY December 2007 - Disclaimer

ORBIFLY MET'MAP TEAM :

Programming & Development : Alexandra Zaïnal
Original concept : Baudouin d'Aumeries
Technical & hardware support : Manuel Goepfert
Assistance : Marc-Olivier Méhu




SOURCES & CREDITS :

   NOAA